createdAt,value
2023-11-15T00:00:26.675Z,8.30
2023-11-15T00:02:53.715Z,8.30
2023-11-15T00:05:21.295Z,8.30
2023-11-15T00:07:48.279Z,8.20
2023-11-15T00:10:15.243Z,8.20
2023-11-15T00:12:43.941Z,8.10
2023-11-15T00:15:11.014Z,8.10
2023-11-15T00:17:38.595Z,8.00
2023-11-15T00:20:06.934Z,8.10
2023-11-15T00:22:33.878Z,8.00
2023-11-15T00:25:01.113Z,8.00
2023-11-15T00:27:28.007Z,8.00
2023-11-15T00:29:54.954Z,8.10
2023-11-15T00:32:21.889Z,8.10
2023-11-15T00:34:48.994Z,8.10
2023-11-15T00:37:16.195Z,8.10
2023-11-15T00:39:43.285Z,8.10
2023-11-15T00:42:11.617Z,8.10
2023-11-15T00:44:40.141Z,8.10
2023-11-15T00:47:07.320Z,8.10
2023-11-15T00:49:34.807Z,8.10
2023-11-15T00:52:01.775Z,8.10
2023-11-15T00:54:28.809Z,8.10
2023-11-15T00:56:59.130Z,8.10
2023-11-15T00:59:37.705Z,8.10
2023-11-15T01:02:07.755Z,8.10
2023-11-15T01:04:34.658Z,8.10
2023-11-15T01:07:01.511Z,8.10
2023-11-15T01:09:28.959Z,8.10
2023-11-15T01:11:56.457Z,8.10
2023-11-15T01:14:23.808Z,8.10
2023-11-15T01:16:50.737Z,8.10
2023-11-15T01:19:18.267Z,8.10
2023-11-15T01:21:45.207Z,8.10
2023-11-15T01:24:12.288Z,8.00
2023-11-15T01:26:39.237Z,8.10
2023-11-15T01:29:06.187Z,8.10
2023-11-15T01:31:33.027Z,8.10
2023-11-15T01:33:59.996Z,8.10
2023-11-15T01:36:26.957Z,8.10
2023-11-15T01:38:53.859Z,8.10
2023-11-15T01:41:21.244Z,8.00
2023-11-15T01:43:48.145Z,8.00
2023-11-15T01:46:16.517Z,8.00
2023-11-15T01:48:44.402Z,8.00
2023-11-15T01:51:11.610Z,8.00
2023-11-15T01:53:40.136Z,8.00
2023-11-15T01:56:09.500Z,8.00
2023-11-15T01:58:37.319Z,8.00
2023-11-15T02:01:06.674Z,8.00
2023-11-15T02:03:33.703Z,8.00
2023-11-15T02:06:01.147Z,7.90
2023-11-15T02:08:28.758Z,8.00
2023-11-15T02:10:55.834Z,8.00
2023-11-15T02:13:27.486Z,8.00
2023-11-15T02:15:57.951Z,8.00
2023-11-15T02:18:26.710Z,8.00
2023-11-15T02:20:53.945Z,8.00
2023-11-15T02:23:22.553Z,8.00
2023-11-15T02:25:53.242Z,8.00
2023-11-15T02:28:20.404Z,8.00
2023-11-15T02:30:47.795Z,8.00
2023-11-15T02:33:15.079Z,8.00
2023-11-15T02:35:42.467Z,8.10
2023-11-15T02:38:09.491Z,8.00
2023-11-15T02:40:37.142Z,8.00
2023-11-15T02:43:11.400Z,8.10
2023-11-15T02:45:38.283Z,8.10
2023-11-15T02:48:05.526Z,8.10
2023-11-15T02:50:32.575Z,8.10
2023-11-15T02:53:00.030Z,8.10
2023-11-15T02:55:27.037Z,8.10
2023-11-15T02:57:53.921Z,8.10
2023-11-15T03:00:21.062Z,8.10
2023-11-15T03:02:48.684Z,8.10
2023-11-15T03:05:15.711Z,8.10
2023-11-15T03:07:42.640Z,8.10
2023-11-15T03:10:10.121Z,8.10
2023-11-15T03:12:37.124Z,8.10
2023-11-15T03:15:04.645Z,8.10
2023-11-15T03:17:33.484Z,8.10
2023-11-15T03:20:00.650Z,8.20
2023-11-15T03:22:27.565Z,8.10
2023-11-15T03:24:55.383Z,8.20
2023-11-15T03:27:22.423Z,8.20
2023-11-15T03:29:49.568Z,8.10
2023-11-15T03:32:16.598Z,8.10
2023-11-15T03:34:43.821Z,8.10
2023-11-15T03:37:11.463Z,8.10
2023-11-15T03:39:41.165Z,8.10
2023-11-15T03:42:08.204Z,8.10
2023-11-15T03:44:35.195Z,8.10
2023-11-15T03:47:02.081Z,8.10
2023-11-15T03:49:29.122Z,8.10
2023-11-15T03:51:56.095Z,8.10
2023-11-15T03:54:23.252Z,8.10
2023-11-15T03:56:50.217Z,8.10
2023-11-15T03:59:17.389Z,8.10
2023-11-15T04:04:14.098Z,8.10
2023-11-15T04:06:41.056Z,8.10
2023-11-15T04:09:09.017Z,8.10
2023-11-15T04:11:37.695Z,8.10
2023-11-15T04:14:05.906Z,8.10
2023-11-15T04:16:33.062Z,8.10
2023-11-15T04:19:00.001Z,8.20
2023-11-15T04:21:30.221Z,8.20
2023-11-15T04:23:57.184Z,8.20
2023-11-15T04:26:24.417Z,8.20
2023-11-15T04:28:51.323Z,8.20
2023-11-15T04:31:18.352Z,8.20
2023-11-15T04:33:45.995Z,8.20
2023-11-15T04:36:12.989Z,8.20
2023-11-15T04:38:40.112Z,8.20
2023-11-15T04:41:08.132Z,8.20
2023-11-15T04:43:35.212Z,8.30
2023-11-15T04:46:02.281Z,8.30
2023-11-15T04:48:29.287Z,8.20
2023-11-15T04:50:58.547Z,8.30
2023-11-15T04:53:25.745Z,8.20
2023-11-15T04:55:52.851Z,8.20
2023-11-15T04:58:19.857Z,8.20
2023-11-15T05:00:46.737Z,8.20
2023-11-15T05:03:13.854Z,8.20
2023-11-15T05:05:44.001Z,8.20
2023-11-15T05:08:11.191Z,8.20
2023-11-15T05:10:38.663Z,8.20
2023-11-15T05:13:05.715Z,8.20
2023-11-15T05:15:33.460Z,8.20
2023-11-15T05:18:01.334Z,8.20
2023-11-15T05:20:28.681Z,8.20
2023-11-15T05:22:58.620Z,8.20
2023-11-15T05:25:25.814Z,8.20
2023-11-15T05:27:52.813Z,8.20
2023-11-15T05:30:19.797Z,8.20
2023-11-15T05:32:46.818Z,8.20
2023-11-15T05:35:13.789Z,8.20
2023-11-15T05:37:40.872Z,8.20
2023-11-15T05:40:08.687Z,8.20
2023-11-15T05:42:36.236Z,8.20
2023-11-15T05:45:03.231Z,8.20
2023-11-15T05:47:31.874Z,8.30
2023-11-15T05:49:58.874Z,8.30
2023-11-15T05:52:26.179Z,8.30
2023-11-15T05:54:53.313Z,8.30
2023-11-15T05:57:21.525Z,8.30
2023-11-15T05:59:48.668Z,8.30
2023-11-15T06:02:16.156Z,8.40
2023-11-15T06:04:45.498Z,8.40
2023-11-15T06:07:12.466Z,8.40
2023-11-15T06:09:39.348Z,8.40
2023-11-15T06:12:06.809Z,8.40
2023-11-15T06:14:33.705Z,8.40
2023-11-15T06:17:00.594Z,8.30
2023-11-15T06:19:27.524Z,8.30
2023-11-15T06:21:54.445Z,8.30
2023-11-15T06:24:21.371Z,8.30
2023-11-15T06:26:52.491Z,8.20
2023-11-15T06:29:23.424Z,8.20
2023-11-15T06:31:50.416Z,8.20
2023-11-15T06:34:17.524Z,8.20
2023-11-15T06:36:48.634Z,8.10
2023-11-15T06:39:15.745Z,8.10
2023-11-15T06:41:42.750Z,8.10
2023-11-15T06:44:10.702Z,8.10
2023-11-15T06:46:39.722Z,8.10
2023-11-15T06:49:07.916Z,8.10
2023-11-15T06:51:35.268Z,8.10
2023-11-15T06:54:02.360Z,8.10
2023-11-15T06:56:30.084Z,8.20
2023-11-15T06:58:58.156Z,8.20
2023-11-15T07:01:25.285Z,8.20
2023-11-15T07:03:52.926Z,8.10
2023-11-15T07:06:19.833Z,8.10
2023-11-15T07:08:46.832Z,8.10
2023-11-15T07:11:13.827Z,8.00
2023-11-15T07:13:40.832Z,8.00
2023-11-15T07:16:10.621Z,8.00
2023-11-15T07:18:38.431Z,8.00
2023-11-15T07:21:07.286Z,8.00
2023-11-15T14:25:33.346Z,20.10
2023-11-15T14:28:03.594Z,20.80
2023-11-15T14:30:30.633Z,21.00
2023-11-15T14:32:58.156Z,21.30
2023-11-15T14:35:27.076Z,21.30
2023-11-15T14:37:57.680Z,20.70
2023-11-15T14:40:25.843Z,18.30
2023-11-15T14:42:57.030Z,16.70
2023-11-15T14:45:26.708Z,16.30
2023-11-15T14:47:53.926Z,15.70
2023-11-15T14:50:23.925Z,14.70
2023-11-15T14:52:56.988Z,14.20
2023-11-15T14:55:32.856Z,13.60
2023-11-15T14:58:00.856Z,13.30
2023-11-15T15:00:28.156Z,13.00
2023-11-15T15:02:55.496Z,12.80
2023-11-15T15:05:25.707Z,12.60
2023-11-15T15:07:52.796Z,12.40
2023-11-15T15:10:20.739Z,12.30
2023-11-15T15:12:49.341Z,12.10
2023-11-15T15:15:19.118Z,11.80
2023-11-15T15:17:47.220Z,11.60
2023-11-15T15:20:20.865Z,11.40
2023-11-15T15:22:48.160Z,11.40
2023-11-15T15:25:16.154Z,11.20
2023-11-15T15:27:43.716Z,11.20
2023-11-15T15:30:17.875Z,10.90
2023-11-15T15:32:46.482Z,10.70
2023-11-15T15:35:14.558Z,10.60
2023-11-15T15:37:42.304Z,10.30
2023-11-15T15:40:17.747Z,10.00
2023-11-15T15:42:48.609Z,9.90
2023-11-15T15:45:16.606Z,9.90
2023-11-15T15:47:44.531Z,9.80
2023-11-15T15:50:12.591Z,9.70
2023-11-15T15:52:40.137Z,9.70
2023-11-15T15:55:10.367Z,9.80
2023-11-15T15:57:38.317Z,9.70
2023-11-15T16:00:07.111Z,9.60
2023-11-15T16:02:37.533Z,9.40
2023-11-15T16:05:05.618Z,9.10
2023-11-15T16:07:32.870Z,9.00
2023-11-15T16:10:02.469Z,8.90
2023-11-15T16:12:29.984Z,8.70
2023-11-15T16:14:58.853Z,8.80
2023-11-15T16:17:27.069Z,8.70
2023-11-15T16:19:58.107Z,8.60
2023-11-15T16:22:26.525Z,8.50
2023-11-15T16:24:55.806Z,8.40
2023-11-15T16:27:28.651Z,8.40
2023-11-15T16:30:02.117Z,8.40
2023-11-15T16:32:30.419Z,8.40
2023-11-15T16:34:57.904Z,8.40
2023-11-15T16:37:25.990Z,8.40
2023-11-15T16:39:53.803Z,8.30
2023-11-15T16:42:21.968Z,8.30
2023-11-15T16:44:49.142Z,8.30
2023-11-15T16:47:16.167Z,8.20
2023-11-15T16:49:43.605Z,8.10
2023-11-15T16:52:11.633Z,8.00
2023-11-15T16:54:54.480Z,7.70
2023-11-15T16:57:21.388Z,7.50
2023-11-15T16:59:50.346Z,7.30
2023-11-15T17:02:18.688Z,7.20
2023-11-15T17:04:45.754Z,7.30
2023-11-15T17:07:13.109Z,7.30
2023-11-15T17:09:42.004Z,7.30
2023-11-15T17:12:09.335Z,7.20
2023-11-15T17:14:36.852Z,7.20
2023-11-15T17:17:05.636Z,7.20
2023-11-15T17:19:32.607Z,7.20
2023-11-15T17:21:59.838Z,7.20
2023-11-15T17:24:27.196Z,7.20
2023-11-15T17:26:54.338Z,7.20
2023-11-15T17:29:22.083Z,7.20
2023-11-15T17:31:48.923Z,7.20
2023-11-15T17:34:15.972Z,7.10
2023-11-15T17:36:44.251Z,7.00
2023-11-15T17:39:13.928Z,7.00
2023-11-15T17:41:42.408Z,6.70
2023-11-15T17:44:12.943Z,6.50
2023-11-15T17:46:43.546Z,6.50
2023-11-15T17:49:15.746Z,6.40
2023-11-15T17:51:46.166Z,6.30
2023-11-15T17:54:15.648Z,6.30
2023-11-15T17:56:43.744Z,6.40
2023-11-15T17:59:10.630Z,6.30
2023-11-15T18:01:40.087Z,6.30
2023-11-15T18:04:15.174Z,6.30
2023-11-15T18:06:42.966Z,6.30
2023-11-15T18:09:11.256Z,6.20
2023-11-15T18:11:38.827Z,6.20
2023-11-15T18:14:07.147Z,6.10
2023-11-15T18:16:34.237Z,6.10
2023-11-15T18:19:09.860Z,6.10
2023-11-15T18:21:38.494Z,6.10
2023-11-15T18:24:06.442Z,5.90
2023-11-15T18:26:33.778Z,5.80
2023-11-15T18:29:02.082Z,5.70
2023-11-15T18:31:29.616Z,5.70
2023-11-15T18:33:58.977Z,5.80
2023-11-15T18:36:26.378Z,5.70
2023-11-15T18:38:53.443Z,5.60
2023-11-15T18:41:20.331Z,5.60
2023-11-15T18:43:49.032Z,5.60
2023-11-15T18:46:15.934Z,5.50
2023-11-15T18:48:42.949Z,5.60
2023-11-15T18:51:09.929Z,5.60
2023-11-15T18:53:36.772Z,5.70
2023-11-15T18:56:04.477Z,5.60
2023-11-15T18:58:33.009Z,5.70
2023-11-15T19:00:59.938Z,5.70
2023-11-15T19:03:27.098Z,5.70
2023-11-15T19:05:56.220Z,5.80
2023-11-15T19:08:24.507Z,5.70
2023-11-15T19:10:55.296Z,5.70
2023-11-15T19:13:23.172Z,5.60
2023-11-15T19:15:52.201Z,5.50
2023-11-15T19:18:20.396Z,5.40
2023-11-15T19:20:47.472Z,5.40
2023-11-15T19:23:16.395Z,5.30
2023-11-15T19:25:44.402Z,5.20
2023-11-15T19:28:11.312Z,5.10
2023-11-15T19:30:38.493Z,5.10
2023-11-15T19:33:07.836Z,5.00
2023-11-15T19:35:37.595Z,5.00
2023-11-15T19:38:05.263Z,5.00
2023-11-15T19:40:33.564Z,5.00
2023-11-15T19:43:00.571Z,5.00
2023-11-15T19:45:27.552Z,5.10
2023-11-15T19:47:54.457Z,5.00
2023-11-15T19:50:21.701Z,5.00
2023-11-15T19:52:49.355Z,5.00
2023-11-15T19:55:16.433Z,5.00
2023-11-15T19:57:43.443Z,4.90
2023-11-15T20:00:12.535Z,5.00
2023-11-15T20:02:46.634Z,4.90
2023-11-15T20:05:16.278Z,4.60
2023-11-15T20:07:43.552Z,4.50
2023-11-15T20:10:10.691Z,4.50
2023-11-15T20:12:41.675Z,4.60
2023-11-15T20:15:11.705Z,4.60
2023-11-15T20:17:38.961Z,4.50
2023-11-15T20:20:08.076Z,4.40
2023-11-15T20:22:45.224Z,4.40
2023-11-15T20:25:19.725Z,4.30
2023-11-15T20:27:46.696Z,4.30
2023-11-15T20:30:14.571Z,4.30
2023-11-15T20:32:41.861Z,4.20
2023-11-15T20:35:09.786Z,4.10
2023-11-15T20:37:36.645Z,4.00
2023-11-15T20:40:06.077Z,4.00
2023-11-15T20:42:33.129Z,4.00
2023-11-15T20:45:00.387Z,4.00
2023-11-15T20:47:27.480Z,4.00
2023-11-15T20:49:54.524Z,4.10
2023-11-15T20:52:21.747Z,4.00
2023-11-15T20:54:49.232Z,3.90
2023-11-15T20:57:17.037Z,3.90
2023-11-15T20:59:44.673Z,4.00
2023-11-15T21:02:12.431Z,4.00
2023-11-15T21:04:40.559Z,4.00
2023-11-15T21:07:08.337Z,4.00
2023-11-15T21:09:36.508Z,3.90
2023-11-15T21:12:04.498Z,3.90
2023-11-15T21:14:31.799Z,3.80
2023-11-15T21:16:58.886Z,3.80
2023-11-15T21:19:26.365Z,3.80
2023-11-15T21:21:53.702Z,3.80
2023-11-15T21:24:20.788Z,3.80
2023-11-15T21:26:48.367Z,3.80
2023-11-15T21:29:15.429Z,3.70
2023-11-15T21:31:43.941Z,3.70
2023-11-15T21:34:11.068Z,3.70
2023-11-15T21:36:39.019Z,3.60
2023-11-15T21:39:09.624Z,3.60
2023-11-15T21:41:37.087Z,3.60
2023-11-15T21:44:05.023Z,3.50
2023-11-15T21:46:32.014Z,3.60
2023-11-15T21:48:59.124Z,3.60
2023-11-15T21:51:27.434Z,3.70
2023-11-15T21:53:55.085Z,3.60
2023-11-15T21:56:22.221Z,3.50
2023-11-15T21:58:50.084Z,3.50
2023-11-15T22:01:16.959Z,3.40
2023-11-15T22:03:44.252Z,3.40
2023-11-15T22:06:13.091Z,3.30
2023-11-15T22:08:40.370Z,3.20
2023-11-15T22:11:07.736Z,3.00
2023-11-15T22:13:34.799Z,3.00
2023-11-15T22:16:02.014Z,2.90
2023-11-15T22:18:30.225Z,2.90
2023-11-15T22:20:58.106Z,2.90
2023-11-15T22:23:25.592Z,2.90
2023-11-15T22:25:52.723Z,2.80
2023-11-15T22:28:21.022Z,2.90
2023-11-15T22:30:49.000Z,2.80
2023-11-15T22:33:16.053Z,2.80
2023-11-15T22:35:49.717Z,2.90
2023-11-15T22:38:17.080Z,2.90
2023-11-15T22:40:44.090Z,2.90
2023-11-15T22:43:12.138Z,2.90
2023-11-15T22:45:39.357Z,3.00
2023-11-15T22:48:07.210Z,3.10
2023-11-15T22:50:34.267Z,3.10
2023-11-15T22:53:01.117Z,3.00
2023-11-15T22:55:28.008Z,3.00
2023-11-15T22:57:55.496Z,2.80
2023-11-15T23:00:37.615Z,2.70
2023-11-15T23:03:10.541Z,2.60
2023-11-15T23:05:39.778Z,2.50
2023-11-15T23:08:07.740Z,2.50
2023-11-15T23:10:40.973Z,2.50
2023-11-15T23:13:07.966Z,2.50
2023-11-15T23:15:35.065Z,2.40
2023-11-15T23:18:02.454Z,2.40
2023-11-15T23:20:35.030Z,2.40
2023-11-15T23:23:02.949Z,2.40
2023-11-15T23:25:30.517Z,2.30
2023-11-15T23:27:57.604Z,2.30
2023-11-15T23:30:25.293Z,2.30
2023-11-15T23:32:55.894Z,2.20
2023-11-15T23:35:25.972Z,2.20
2023-11-15T23:37:58.692Z,2.20
2023-11-15T23:40:26.897Z,2.20
2023-11-15T23:42:55.289Z,2.20
2023-11-15T23:45:22.909Z,2.20
2023-11-15T23:47:51.364Z,2.20
2023-11-15T23:50:24.467Z,2.10
2023-11-15T23:52:52.775Z,2.10
2023-11-15T23:55:24.284Z,2.10
2023-11-15T23:57:51.569Z,2.10
